Time;durP1;ratioP1;P1;durP2;ratioP2;P2;SDS_P1;SDS_P2;PMS_P1;PMS_P2;Temp;Humidity;BMP_temperature;BMP_pressure;BME280_temperature;BME280_humidity;BME280_pressure;Samples;Min_cycle;Max_cycle;Signal;HPM_P1;HPM_P2
2024/02/17 00:01:22;;;;;;;0.10;0.10;;;;;;;12.83;82.01;101518.97;7359103;19;20041;-60
2024/02/17 00:03:48;;;;;;;0.10;0.10;;;;;;;12.81;82.15;101519.00;7358062;19;20007;-61
2024/02/17 00:06:13;;;;;;;0.10;0.10;;;;;;;12.80;82.20;101519.03;7360894;19;20564;-61
2024/02/17 00:08:38;;;;;;;0.10;0.10;;;;;;;12.77;81.79;101517.31;7360855;19;20449;-60
2024/02/17 00:11:04;;;;;;;0.10;0.10;;;;;;;12.76;81.93;101526.06;7360577;19;20011;-61
2024/02/17 00:13:29;;;;;;;0.20;0.20;;;;;;;12.73;81.70;101529.63;7358023;19;20006;-61
2024/02/17 00:15:55;;;;;;;0.13;0.13;;;;;;;12.70;81.82;101528.81;7360658;19;20029;-60
2024/02/17 00:18:26;;;;;;;0.10;0.10;;;;;;;12.71;81.74;101527.91;7356395;19;20487;-61
2024/02/17 00:20:52;;;;;;;0.10;0.10;;;;;;;12.70;82.15;101527.06;7359113;19;20112;-61
2024/02/17 00:23:17;;;;;;;0.17;0.17;;;;;;;12.70;82.23;101529.69;7358250;19;20093;-60
2024/02/17 00:25:43;;;;;;;0.10;0.10;;;;;;;12.69;82.26;101525.34;7360451;19;20478;-61
2024/02/17 00:28:08;;;;;;;0.10;0.10;;;;;;;12.69;81.96;101530.56;7356911;19;20417;-61
2024/02/17 00:30:35;;;;;;;0.20;0.20;;;;;;;12.66;82.35;101522.75;7356787;19;20011;-60
2024/02/17 00:33:03;;;;;;;0.10;0.10;;;;;;;12.69;82.02;101529.72;7358807;19;20721;-62
2024/02/17 00:35:28;;;;;;;0.10;0.10;;;;;;;12.68;82.34;101530.59;7359342;19;20002;-61
2024/02/17 00:37:54;;;;;;;0.10;0.10;;;;;;;12.68;82.38;101539.34;7360567;19;20025;-61
2024/02/17 00:40:19;;;;;;;0.10;0.10;;;;;;;12.67;82.43;101537.63;7359370;19;20018;-60
2024/02/17 00:42:45;;;;;;;0.10;0.10;;;;;;;12.66;82.34;101540.25;7359480;19;20070;-60
2024/02/17 00:45:11;;;;;;;0.10;0.10;;;;;;;12.67;82.29;101537.63;7359293;19;20003;-61
2024/02/17 00:47:36;;;;;;;0.10;0.10;;;;;;;12.68;82.43;101546.34;7360130;19;20006;-61
2024/02/17 00:50:02;;;;;;;0.10;0.10;;;;;;;12.70;82.43;101536.69;7357725;19;20033;-60
2024/02/17 00:52:27;;;;;;;0.10;0.10;;;;;;;12.66;81.99;101532.38;7358814;19;20014;-61
2024/02/17 00:54:53;;;;;;;0.10;0.10;;;;;;;12.66;82.44;101533.22;7354041;19;20431;-61
2024/02/17 00:57:18;;;;;;;0.10;0.10;;;;;;;12.73;82.21;101539.25;7356912;19;20094;-61
2024/02/17 00:59:44;;;;;;;0.10;0.10;;;;;;;12.73;82.19;101539.25;7364286;19;20010;-60
2024/02/17 01:02:09;;;;;;;0.10;0.10;;;;;;;12.75;82.08;101528.72;7366835;19;20029;-60
2024/02/17 01:04:35;;;;;;;0.20;0.20;;;;;;;12.64;81.97;101516.69;7364806;19;20007;-62
2024/02/17 01:07:00;;;;;;;0.10;0.10;;;;;;;12.73;82.13;101523.53;7363900;19;20030;-61
2024/02/17 01:09:26;;;;;;;0.10;0.10;;;;;;;12.76;82.10;101522.59;7360075;19;20010;-60
2024/02/17 01:11:51;;;;;;;0.10;0.10;;;;;;;12.76;82.07;101522.59;7364990;19;20018;-60
2024/02/17 01:14:17;;;;;;;0.10;0.10;;;;;;;12.73;81.92;101524.38;7364643;19;20361;-61
2024/02/17 01:16:43;;;;;;;0.10;0.10;;;;;;;12.70;81.97;101513.94;7361973;19;20037;-61
2024/02/17 01:19:09;;;;;;;0.10;0.10;;;;;;;12.67;81.78;101519.28;7367440;19;20015;-60
2024/02/17 01:21:34;;;;;;;0.10;0.10;;;;;;;12.63;81.49;101514.97;7368245;19;20086;-61
2024/02/17 01:24:00;;;;;;;0.10;0.10;;;;;;;12.57;81.63;101512.47;7365478;19;20006;-61
2024/02/17 01:26:27;;;;;;;0.10;0.10;;;;;;;12.46;81.41;101506.53;7355618;19;20010;-61
2024/02/17 01:28:53;;;;;;;0.10;0.10;;;;;;;12.45;81.16;101523.16;7366063;19;20037;-61
2024/02/17 01:31:18;;;;;;;0.10;0.10;;;;;;;12.30;81.47;101507.69;7366905;19;20023;-61
2024/02/17 01:33:46;;;;;;;0.10;0.10;;;;;;;12.30;81.16;101528.63;7365728;19;20015;-60
2024/02/17 01:36:16;;;;;;;0.00;0.00;;;;;;;12.24;81.11;101532.22;7365650;19;20070;-61
2024/02/17 01:38:42;;;;;;;0.03;0.03;;;;;;;12.12;81.09;101520.22;7367413;19;20021;-61
2024/02/17 01:41:08;;;;;;;0.10;0.10;;;;;;;12.08;81.09;101529.00;7365767;19;20006;-61
2024/02/17 01:43:34;;;;;;;0.10;0.10;;;;;;;11.99;81.38;101529.13;7366292;19;20109;-61
2024/02/17 01:45:59;;;;;;;0.20;0.20;;;;;;;11.95;81.45;101530.06;7360262;19;20018;-61
2024/02/17 01:48:25;;;;;;;0.10;0.10;;;;;;;11.66;81.27;101499.94;7367423;19;20015;-60
2024/02/17 01:50:51;;;;;;;0.10;0.10;;;;;;;11.82;81.34;101537.25;7364435;19;20002;-61
2024/02/17 01:53:17;;;;;;;0.10;0.10;;;;;;;11.75;81.27;101535.53;7364742;19;20046;-61
2024/02/17 01:55:42;;;;;;;0.10;0.10;;;;;;;11.68;81.36;101529.53;7356414;19;20029;-62
2024/02/17 01:58:08;;;;;;;0.10;0.10;;;;;;;11.63;81.51;101531.34;7364075;19;20695;-60
2024/02/17 02:00:34;;;;;;;0.15;0.15;;;;;;;11.60;82.05;101531.38;7360011;19;20026;-61
2024/02/17 02:03:00;;;;;;;0.10;0.10;;;;;;;11.61;82.16;101543.59;7367870;19;20425;-60
2024/02/17 02:05:25;;;;;;;0.20;0.20;;;;;;;11.44;82.37;101514.19;7362561;19;20631;-60
2024/02/17 02:07:51;;;;;;;0.10;0.10;;;;;;;11.59;82.53;101540.13;7366548;19;20015;-62
2024/02/17 02:10:16;;;;;;;0.10;0.10;;;;;;;11.48;82.31;101521.09;7362578;19;20025;-61
2024/02/17 02:12:42;;;;;;;0.10;0.10;;;;;;;11.54;82.51;101544.56;7359755;19;20017;-61
2024/02/17 02:15:12;;;;;;;0.10;0.10;;;;;;;11.62;82.42;101549.69;7364138;19;20014;-61
2024/02/17 02:17:43;;;;;;;0.10;0.10;;;;;;;11.64;82.54;101548.78;7362307;19;20031;-61
2024/02/17 02:20:11;;;;;;;0.20;0.20;;;;;;;11.65;82.99;101554.88;7363695;19;20011;-61
2024/02/17 02:22:38;;;;;;;0.10;0.10;;;;;;;11.65;82.93;101555.75;7364041;19;20014;-61
2024/02/17 02:25:05;;;;;;;0.03;0.03;;;;;;;11.69;82.89;101556.56;7369535;19;20013;-61
2024/02/17 02:27:31;;;;;;;0.10;0.10;;;;;;;11.72;83.05;101550.44;7362006;19;20022;-60
2024/02/17 02:29:56;;;;;;;0.10;0.10;;;;;;;11.75;82.99;101550.38;7368125;19;20517;-60
2024/02/17 02:32:25;;;;;;;0.10;0.10;;;;;;;11.76;82.85;101552.09;7365246;19;20015;-61
2024/02/17 02:34:52;;;;;;;0.10;0.10;;;;;;;11.82;83.27;101539.00;7365937;19;20014;-61
2024/02/17 02:37:17;;;;;;;0.20;0.20;;;;;;;11.84;83.27;101535.44;7368234;19;20790;-60
2024/02/17 02:39:43;;;;;;;0.10;0.10;;;;;;;11.88;82.76;101537.16;7368410;19;20003;-60
2024/02/17 02:42:08;;;;;;;0.10;0.10;;;;;;;11.72;83.08;101511.19;7363456;19;20011;-61
2024/02/17 02:44:33;;;;;;;0.10;0.10;;;;;;;11.93;82.98;101545.78;7368229;19;20015;-61
2024/02/17 02:46:59;;;;;;;0.17;0.17;;;;;;;11.98;82.70;101548.34;7371009;19;20012;-61
2024/02/17 02:49:24;;;;;;;0.10;0.10;;;;;;;12.03;82.97;101543.91;7369324;19;20021;-61
2024/02/17 02:51:50;;;;;;;0.20;0.20;;;;;;;12.04;83.05;101537.78;7364901;19;20014;-60
2024/02/17 02:54:18;;;;;;;0.10;0.10;;;;;;;12.09;83.04;101532.47;7369656;19;20033;-61
2024/02/17 02:56:44;;;;;;;0.10;0.10;;;;;;;12.10;82.81;101537.66;7365615;19;20011;-60
2024/02/17 02:59:09;;;;;;;0.10;0.10;;;;;;;12.13;82.51;101535.03;7363059;19;20993;-61
2024/02/17 03:01:35;;;;;;;0.20;0.20;;;;;;;12.13;82.21;101535.03;7366860;19;20028;-60
2024/02/17 03:04:00;;;;;;;0.10;0.10;;;;;;;12.13;82.19;101537.63;7365840;19;20472;-61
2024/02/17 03:06:25;;;;;;;0.10;0.10;;;;;;;12.14;82.01;101548.97;7363697;19;20112;-61
2024/02/17 03:08:51;;;;;;;0.10;0.10;;;;;;;12.08;82.24;101543.84;7366646;19;20015;-61
2024/02/17 03:11:16;;;;;;;0.10;0.10;;;;;;;12.09;81.88;101550.81;7368632;19;20006;-61
2024/02/17 03:13:42;;;;;;;0.10;0.10;;;;;;;11.99;81.92;101534.38;7363884;19;20518;-61
2024/02/17 03:16:07;;;;;;;0.10;0.10;;;;;;;12.03;81.95;101553.50;7366439;19;20021;-61
2024/02/17 03:18:33;;;;;;;0.20;0.20;;;;;;;12.00;82.12;101556.16;7361183;19;20057;-60
2024/02/17 03:20:58;;;;;;;0.20;0.20;;;;;;;11.94;82.04;101551.88;7361573;19;20006;-60
2024/02/17 03:23:25;;;;;;;0.10;0.10;;;;;;;11.91;81.63;101551.91;7364178;19;20021;-61
2024/02/17 03:25:50;;;;;;;0.10;0.10;;;;;;;11.86;81.92;101538.03;7366776;19;20011;-61
2024/02/17 03:28:16;;;;;;;0.10;0.10;;;;;;;11.77;82.07;101538.16;7364863;19;20025;-61
2024/02/17 03:30:41;;;;;;;0.10;0.10;;;;;;;11.78;81.86;101539.88;7365102;19;20018;-61
2024/02/17 03:33:09;;;;;;;0.10;0.10;;;;;;;11.72;82.03;101534.75;7365901;19;20026;-62
2024/02/17 03:35:35;;;;;;;0.10;0.10;;;;;;;11.67;81.88;101533.06;7365265;19;20018;-61
2024/02/17 03:38:00;;;;;;;0.10;0.10;;;;;;;11.62;81.70;101521.78;7363543;19;20007;-61
2024/02/17 03:40:26;;;;;;;0.10;0.10;;;;;;;11.54;81.76;101518.41;7366001;19;20017;-61
2024/02/17 03:42:51;;;;;;;0.10;0.10;;;;;;;11.11;81.64;101463.22;7358263;19;20050;-61
2024/02/17 03:45:17;;;;;;;0.10;0.10;;;;;;;11.29;81.50;101520.47;7363446;19;20033;-62
2024/02/17 03:47:42;;;;;;;0.10;0.10;;;;;;;11.42;81.76;101552.56;7361822;19;20014;-61
2024/02/17 03:50:08;;;;;;;0.17;0.17;;;;;;;11.38;82.06;101536.03;7362493;19;20010;-60
2024/02/17 03:52:33;;;;;;;0.10;0.10;;;;;;;11.35;82.42;101532.59;7366087;19;20002;-61
2024/02/17 03:54:59;;;;;;;0.10;0.10;;;;;;;11.33;82.07;101527.41;7360324;19;20490;-60
2024/02/17 03:57:24;;;;;;;0.10;0.10;;;;;;;11.36;82.61;101536.97;7361324;19;20003;-60
2024/02/17 03:59:50;;;;;;;0.20;0.20;;;;;;;11.37;82.61;101528.22;7362978;19;20007;-60
2024/02/17 04:02:15;;;;;;;0.10;0.10;;;;;;;11.37;82.87;101521.25;7361839;19;20018;-61
2024/02/17 04:04:40;;;;;;;0.10;0.10;;;;;;;11.39;82.63;101519.47;7363473;19;20018;-61
2024/02/17 04:07:06;;;;;;;0.10;0.10;;;;;;;11.42;82.81;101523.81;7364847;19;20006;-60
2024/02/17 04:09:31;;;;;;;0.10;0.10;;;;;;;11.38;82.77;101511.66;7365519;19;20031;-60
2024/02/17 04:11:57;;;;;;;0.10;0.10;;;;;;;11.45;82.97;101518.50;7364992;19;20014;-60
2024/02/17 04:14:23;;;;;;;0.10;0.10;;;;;;;11.47;82.51;101513.28;7362607;19;20018;-60
2024/02/17 04:16:49;;;;;;;0.10;0.10;;;;;;;11.48;82.92;101502.78;7338299;19;20511;-60
2024/02/17 04:19:14;;;;;;;0.10;0.10;;;;;;;11.48;82.86;101489.72;7360903;19;20017;-61
2024/02/17 04:21:39;;;;;;;0.10;0.10;;;;;;;11.52;82.38;101495.78;7359588;19;20010;-59
2024/02/17 04:24:05;;;;;;;0.10;0.10;;;;;;;11.53;82.79;101502.72;7367090;19;20017;-61
2024/02/17 04:26:31;;;;;;;0.10;0.10;;;;;;;11.51;82.64;101500.16;7364300;19;20815;-64
2024/02/17 04:28:57;;;;;;;0.10;0.10;;;;;;;11.43;82.30;101484.56;7363161;19;20021;-61
2024/02/17 04:31:23;;;;;;;0.10;0.10;;;;;;;11.51;82.31;101505.38;7361209;19;20015;-60
2024/02/17 04:33:48;;;;;;;0.10;0.10;;;;;;;11.50;82.09;101498.41;7368664;19;20018;-61
2024/02/17 04:36:13;;;;;;;0.00;0.00;;;;;;;11.47;82.31;101501.06;7365135;19;20009;-61
2024/02/17 04:38:40;;;;;;;0.10;0.10;;;;;;;11.43;81.82;101502.84;7372310;19;20003;-61
2024/02/17 04:41:06;;;;;;;0.10;0.10;;;;;;;11.41;82.03;101509.00;7372127;19;20025;-60
2024/02/17 04:43:31;;;;;;;0.10;0.10;;;;;;;11.37;81.96;101504.69;7373235;19;20007;-62
2024/02/17 04:45:57;;;;;;;0.10;0.10;;;;;;;11.33;81.81;101511.72;7371680;19;20006;-61
2024/02/17 04:48:22;;;;;;;0.10;0.10;;;;;;;11.29;81.92;101519.59;7367452;19;20068;-61
2024/02/17 04:50:48;;;;;;;0.10;0.10;;;;;;;11.24;81.72;101524.88;7370623;19;20009;-61
2024/02/17 04:53:13;;;;;;;0.10;0.10;;;;;;;11.21;81.92;101529.31;7369807;19;20017;-61
2024/02/17 04:55:38;;;;;;;0.10;0.10;;;;;;;11.14;82.02;101531.97;7368825;19;20007;-61
2024/02/17 04:58:06;;;;;;;0.10;0.10;;;;;;;11.11;81.63;101541.63;7370500;19;20015;-61
2024/02/17 05:00:32;;;;;;;0.10;0.10;;;;;;;11.08;81.97;101546.88;7372703;19;20734;-61
2024/02/17 05:02:57;;;;;;;0.10;0.10;;;;;;;10.88;82.01;101520.94;7364488;19;20036;-61
2024/02/17 05:05:23;;;;;;;0.10;0.10;;;;;;;10.97;82.05;101539.16;7371471;19;20033;-61
2024/02/17 05:07:48;;;;;;;0.00;0.00;;;;;;;10.93;81.67;101545.28;7365142;19;20456;-61
2024/02/17 05:10:14;;;;;;;0.10;0.10;;;;;;;10.93;81.89;101563.59;7371175;19;20025;-61
2024/02/17 05:12:40;;;;;;;0.10;0.10;;;;;;;10.87;82.23;101553.19;7371425;19;20017;-60
2024/02/17 05:15:06;;;;;;;0.10;0.10;;;;;;;10.88;82.08;101562.75;7371575;19;20003;-60
2024/02/17 05:17:32;;;;;;;0.00;0.00;;;;;;;10.84;82.19;101572.38;7368549;19;20006;-60
2024/02/17 05:19:58;;;;;;;0.10;0.10;;;;;;;10.73;81.95;101553.31;7371043;19;20009;-61
2024/02/17 05:22:23;;;;;;;0.10;0.10;;;;;;;10.80;82.37;101585.50;7369563;19;20770;-60
2024/02/17 05:24:49;;;;;;;0.10;0.10;;;;;;;10.70;82.49;101568.19;7370923;19;20014;-61
2024/02/17 05:27:14;;;;;;;0.10;0.10;;;;;;;10.79;82.42;101578.53;7367358;19;20010;-60
2024/02/17 05:29:40;;;;;;;0.10;0.10;;;;;;;10.80;82.61;101564.59;7370581;19;20017;-61
2024/02/17 05:32:07;;;;;;;0.10;0.10;;;;;;;10.80;82.52;101567.22;7367205;19;20035;-60
2024/02/17 05:34:33;;;;;;;0.10;0.10;;;;;;;10.77;82.69;101556.78;7369376;19;20020;-61
2024/02/17 05:36:59;;;;;;;0.10;0.10;;;;;;;10.82;82.54;101562.84;7369332;19;20015;-60
2024/02/17 05:39:24;;;;;;;0.15;0.15;;;;;;;10.82;82.34;101560.22;7368537;19;20653;-63
2024/02/17 05:41:51;;;;;;;0.10;0.10;;;;;;;10.83;82.85;101556.72;7366338;19;20033;-60
2024/02/17 05:44:16;;;;;;;0.10;0.10;;;;;;;10.84;82.62;101563.66;7366024;19;20010;-61
2024/02/17 05:46:42;;;;;;;0.17;0.17;;;;;;;10.70;82.24;101529.00;7370185;19;20018;-61
2024/02/17 05:49:08;;;;;;;0.10;0.10;;;;;;;10.83;82.56;101551.50;7367806;19;20462;-61
2024/02/17 05:51:34;;;;;;;0.10;0.10;;;;;;;10.80;82.53;101536.72;7368993;19;20007;-61
2024/02/17 05:53:59;;;;;;;0.10;0.10;;;;;;;10.79;82.27;101542.81;7369680;19;20007;-60
2024/02/17 05:56:25;;;;;;;0.10;0.10;;;;;;;10.77;82.13;101538.50;7366474;19;20049;-61
2024/02/17 05:58:50;;;;;;;0.10;0.10;;;;;;;10.75;82.36;101535.03;7369473;19;20010;-61
2024/02/17 06:01:16;;;;;;;0.10;0.10;;;;;;;10.74;82.24;101551.56;7366972;19;20022;-61
2024/02/17 06:03:41;;;;;;;0.10;0.10;;;;;;;10.72;81.94;101558.56;7367253;19;20007;-61
2024/02/17 06:06:06;;;;;;;0.10;0.10;;;;;;;10.67;81.95;101561.22;7363332;19;20013;-61
2024/02/17 06:08:32;;;;;;;0.10;0.10;;;;;;;10.64;82.34;101556.91;7368761;19;20014;-61
2024/02/17 06:10:57;;;;;;;0.10;0.10;;;;;;;10.65;82.04;101553.41;7369457;19;20014;-61
2024/02/17 06:13:24;;;;;;;0.10;0.10;;;;;;;10.66;82.60;101549.06;7368002;19;20010;-60
2024/02/17 06:15:50;;;;;;;0.10;0.10;;;;;;;10.65;82.36;101548.19;7364345;19;20031;-60
2024/02/17 06:21:17;;;;;;;0.10;0.10;;;;;;;10.56;82.49;101522.16;7371232;19;20022;-61
2024/02/17 06:23:43;;;;;;;0.10;0.10;;;;;;;10.67;82.61;101542.09;7364212;19;20007;-60
2024/02/17 06:26:29;;;;;;;0.10;0.10;;;;;;;10.66;82.06;101538.59;7368099;19;20015;-61
2024/02/17 06:28:57;;;;;;;0.10;0.10;;;;;;;10.66;82.65;101546.44;7366669;19;20023;-60
2024/02/17 06:31:23;;;;;;;0.10;0.10;;;;;;;10.65;82.27;101532.53;7367471;19;20018;-61
2024/02/17 06:33:49;;;;;;;0.10;0.10;;;;;;;10.51;82.24;101508.28;7367071;19;20018;-60
2024/02/17 06:36:15;;;;;;;0.10;0.10;;;;;;;10.63;82.59;101529.03;7366011;19;20526;-60
2024/02/17 06:38:41;;;;;;;0.10;0.10;;;;;;;10.61;82.15;101533.41;7366912;19;20090;-61
2024/02/17 06:41:09;;;;;;;0.10;0.10;;;;;;;10.63;82.59;101534.25;7365534;19;20478;-61
2024/02/17 06:43:34;;;;;;;0.10;0.10;;;;;;;10.61;82.09;101543.88;7367744;19;20083;-61
2024/02/17 06:46:00;;;;;;;0.10;0.10;;;;;;;10.54;82.57;101531.75;7358735;19;20070;-60
2024/02/17 06:48:26;;;;;;;0.10;0.10;;;;;;;10.59;82.22;101543.03;7365337;19;20475;-61
2024/02/17 06:50:52;;;;;;;0.10;0.10;;;;;;;10.59;82.14;101552.59;7362446;19;20470;-61
2024/02/17 06:53:18;;;;;;;0.10;0.10;;;;;;;10.45;82.13;101524.00;7367786;19;20048;-61
2024/02/17 06:55:44;;;;;;;0.10;0.10;;;;;;;10.56;82.15;101535.22;7367264;19;20557;-61
2024/02/17 06:58:10;;;;;;;0.00;0.00;;;;;;;10.56;82.14;101532.59;7359342;19;20033;-60
2024/02/17 07:00:36;;;;;;;0.10;0.10;;;;;;;10.40;82.35;101494.47;7366429;19;20006;-62
2024/02/17 07:03:03;;;;;;;0.10;0.10;;;;;;;10.46;82.36;101501.38;7367182;19;20001;-60
2024/02/17 07:05:29;;;;;;;0.10;0.10;;;;;;;10.54;82.44;101521.31;7365128;19;20022;-60
2024/02/17 07:07:54;;;;;;;0.20;0.20;;;;;;;10.53;82.43;101522.16;7367632;19;20003;-60
2024/02/17 07:10:20;;;;;;;0.08;0.08;;;;;;;10.49;82.37;101504.81;7365226;19;20029;-60
2024/02/17 07:12:45;;;;;;;0.10;0.10;;;;;;;10.55;82.42;101520.44;7363553;19;20052;-61
2024/02/17 07:15:11;;;;;;;0.17;0.17;;;;;;;10.06;82.22;101437.28;7364256;19;20078;-60
2024/02/17 07:17:36;;;;;;;0.10;0.10;;;;;;;10.54;82.30;101516.09;7366009;19;19998;-60
2024/02/17 07:20:03;;;;;;;0.10;0.10;;;;;;;10.59;82.67;101532.59;7365162;19;20020;-61
2024/02/17 07:22:29;;;;;;;0.03;0.03;;;;;;;10.50;82.40;101517.00;7368599;19;19998;-61
2024/02/17 07:24:54;;;;;;;0.10;0.10;;;;;;;10.57;82.68;101525.63;7363734;19;20005;-60
2024/02/17 07:27:20;;;;;;;0.00;0.00;;;;;;;10.59;82.62;101543.03;7365871;19;20010;-60
2024/02/17 07:29:46;;;;;;;0.20;0.20;;;;;;;10.60;82.26;101546.50;7362450;19;20737;-61
2024/02/17 07:32:12;;;;;;;0.10;0.10;;;;;;;10.61;82.45;101541.25;7365804;19;20010;-60
2024/02/17 07:34:39;;;;;;;0.10;0.10;;;;;;;10.62;82.28;101542.97;7362078;19;20942;-61
2024/02/17 07:37:04;;;;;;;0.10;0.10;;;;;;;10.63;82.43;101544.72;7362085;19;20006;-61
2024/02/17 07:39:30;;;;;;;0.10;0.10;;;;;;;10.65;82.49;101537.75;7363982;19;20017;-62
2024/02/17 07:41:55;;;;;;;0.10;0.10;;;;;;;10.67;82.21;101539.47;7358068;19;20013;-61
2024/02/17 07:44:23;;;;;;;0.10;0.10;;;;;;;10.70;82.57;101539.44;7366858;19;20412;-60
2024/02/17 07:46:49;;;;;;;0.10;0.10;;;;;;;10.73;82.62;101539.41;7366277;19;20079;-60
2024/02/17 07:49:17;;;;;;;0.03;0.03;;;;;;;10.74;82.23;101531.53;7362774;19;20038;-61
2024/02/17 07:51:43;;;;;;;0.00;0.00;;;;;;;10.77;82.12;101535.88;7362027;19;20344;-60
2024/02/17 07:54:08;;;;;;;0.13;0.13;;;;;;;10.61;82.34;101504.69;7358864;19;20522;-60
2024/02/17 07:56:34;;;;;;;0.10;0.10;;;;;;;10.82;82.26;101528.88;7364295;19;20118;-60
2024/02/17 07:58:59;;;;;;;0.10;0.10;;;;;;;10.84;82.47;101533.19;7363468;19;20029;-61
2024/02/17 08:01:24;;;;;;;0.10;0.10;;;;;;;10.87;82.51;101538.38;7366532;19;20014;-58
2024/02/17 08:03:50;;;;;;;0.10;0.10;;;;;;;10.91;82.26;101540.09;7362259;19;20036;-61
2024/02/17 08:06:19;;;;;;;0.10;0.10;;;;;;;10.94;82.21;101541.78;7362297;19;20059;-61
2024/02/17 08:08:45;;;;;;;0.10;0.10;;;;;;;10.97;82.00;101538.28;7369274;19;20031;-61
2024/02/17 08:11:11;;;;;;;0.10;0.10;;;;;;;11.01;82.04;101540.84;7371649;19;20102;-60
2024/02/17 08:13:38;;;;;;;0.10;0.10;;;;;;;10.85;82.47;101521.00;7370289;19;20557;-61
2024/02/17 08:16:04;;;;;;;0.10;0.10;;;;;;;11.07;82.24;101553.00;7372813;19;20014;-60
2024/02/17 08:18:29;;;;;;;0.10;0.10;;;;;;;11.01;82.26;101540.84;7372988;19;20689;-61
2024/02/17 08:20:57;;;;;;;0.20;0.20;;;;;;;11.10;82.22;101556.44;7373067;19;20018;-60
2024/02/17 08:23:26;;;;;;;0.10;0.10;;;;;;;10.93;81.95;101516.53;7370281;19;20006;-61
2024/02/17 08:25:52;;;;;;;0.10;0.10;;;;;;;11.13;81.70;101540.69;7369926;19;20037;-61
2024/02/17 08:28:17;;;;;;;0.20;0.20;;;;;;;11.13;81.70;101540.69;7366951;19;20013;-61
2024/02/17 08:30:43;;;;;;;0.20;0.20;;;;;;;11.10;81.86;101532.03;7369060;19;20011;-61
2024/02/17 08:33:08;;;;;;;0.10;0.10;;;;;;;11.10;81.59;101529.41;7370800;19;20603;-61
2024/02/17 08:35:35;;;;;;;0.10;0.10;;;;;;;11.04;81.57;101519.91;7371938;19;20015;-61
2024/02/17 08:38:01;;;;;;;0.10;0.10;;;;;;;11.09;82.09;101528.56;7369322;19;19995;-61
2024/02/17 08:40:26;;;;;;;0.10;0.10;;;;;;;11.13;81.81;101530.25;7367412;19;20014;-60
2024/02/17 08:42:52;;;;;;;0.10;0.10;;;;;;;11.09;81.83;101532.91;7368528;19;19998;-61
2024/02/17 08:45:17;;;;;;;0.10;0.10;;;;;;;11.10;81.66;101530.31;7370607;19;20011;-60
2024/02/17 08:47:43;;;;;;;0.20;0.20;;;;;;;11.03;81.88;101512.94;7368873;19;20017;-61
2024/02/17 08:50:08;;;;;;;0.10;0.10;;;;;;;11.07;81.81;101514.66;7372826;19;20015;-62
2024/02/17 08:52:34;;;;;;;0.10;0.10;;;;;;;11.12;82.10;101511.97;7369982;19;20018;-61
2024/02/17 08:54:59;;;;;;;0.10;0.10;;;;;;;11.16;82.05;101509.31;7371560;19;20003;-61
2024/02/17 08:57:25;;;;;;;0.10;0.10;;;;;;;11.20;81.65;101514.47;7368658;19;20037;-61
2024/02/17 08:59:50;;;;;;;0.10;0.10;;;;;;;11.15;81.64;101510.19;7370387;19;20423;-60
2024/02/17 09:02:18;;;;;;;0.10;0.10;;;;;;;11.25;81.62;101523.13;7366818;19;20425;-61
2024/02/17 09:04:45;;;;;;;0.10;0.10;;;;;;;11.25;82.10;101513.53;7373655;19;20898;-61
2024/02/17 09:07:11;;;;;;;0.10;0.10;;;;;;;11.30;81.72;101516.09;7370903;19;20002;-60
2024/02/17 09:09:36;;;;;;;0.10;0.10;;;;;;;11.28;81.62;101510.03;7371450;19;20505;-60
2024/02/17 09:12:03;;;;;;;0.10;0.10;;;;;;;11.30;81.86;101500.41;7370857;19;19987;-60
2024/02/17 09:14:33;;;;;;;0.10;0.10;;;;;;;11.43;81.83;101512.47;7370739;19;20569;-61
2024/02/17 09:16:58;;;;;;;0.13;0.13;;;;;;;11.43;81.53;101499.38;7365286;19;20020;-60
2024/02/17 09:19:24;;;;;;;0.10;0.10;;;;;;;11.58;81.89;101504.41;7363145;19;20486;-63
2024/02/17 09:21:49;;;;;;;0.10;0.10;;;;;;;11.68;81.56;101503.38;7366307;19;20017;-61
2024/02/17 09:24:19;;;;;;;0.10;0.10;;;;;;;11.81;81.54;101509.31;7368537;19;20011;-59
2024/02/17 09:26:45;;;;;;;0.20;0.20;;;;;;;11.96;81.42;101505.59;7367220;19;20002;-63
2024/02/17 09:29:11;;;;;;;0.10;0.10;;;;;;;11.91;81.08;101473.41;7366209;19;20006;-61
2024/02/17 09:31:36;;;;;;;0.10;0.10;;;;;;;12.29;80.66;101505.97;7359655;19;20014;-61
2024/02/17 09:34:02;;;;;;;0.10;0.10;;;;;;;12.46;80.50;101509.16;7367764;19;20381;-61
2024/02/17 09:36:28;;;;;;;0.10;0.10;;;;;;;12.63;79.76;101506.25;7362739;19;20033;-61
2024/02/17 09:38:53;;;;;;;0.10;0.10;;;;;;;12.63;79.33;101475.66;7368069;19;20021;-61
2024/02/17 09:41:19;;;;;;;0.13;0.13;;;;;;;12.86;79.33;101487.44;7366441;19;19998;-60
2024/02/17 09:43:45;;;;;;;0.10;0.10;;;;;;;12.92;78.94;101482.06;7367304;19;20010;-61
2024/02/17 09:46:12;;;;;;;0.10;0.10;;;;;;;12.98;78.80;101476.75;7361126;19;20264;-61
2024/02/17 09:48:38;;;;;;;0.10;0.10;;;;;;;12.98;78.68;101476.75;7367472;19;20324;-60
2024/02/17 09:51:06;;;;;;;0.10;0.10;;;;;;;13.00;78.38;101480.19;7361786;19;20010;-60
2024/02/17 09:53:32;;;;;;;0.10;0.10;;;;;;;12.99;78.53;101473.22;7366864;19;20105;-63
2024/02/17 09:55:59;;;;;;;0.10;0.10;;;;;;;13.00;78.88;101469.69;7363601;19;20033;-61
2024/02/17 09:58:25;;;;;;;0.10;0.10;;;;;;;12.87;78.81;101452.47;7364702;19;20024;-60
2024/02/17 10:00:50;;;;;;;0.10;0.10;;;;;;;12.95;78.95;101461.91;7368795;19;20010;-61
2024/02/17 10:03:17;;;;;;;0.10;0.10;;;;;;;12.93;78.81;101453.22;7363075;19;20074;-60
2024/02/17 10:05:43;;;;;;;0.10;0.10;;;;;;;12.90;78.85;101455.91;7365738;19;20691;-61
2024/02/17 10:08:09;;;;;;;0.10;0.10;;;;;;;12.90;78.79;101452.41;7366153;19;20711;-60
2024/02/17 10:10:35;;;;;;;0.20;0.20;;;;;;;12.91;78.86;101451.53;7352361;19;19998;-61
2024/02/17 10:13:02;;;;;;;0.10;0.10;;;;;;;12.90;79.24;101460.28;7356076;19;20078;-61
2024/02/17 10:15:27;;;;;;;0.10;0.10;;;;;;;12.90;79.23;101453.28;7365730;19;20039;-60
2024/02/17 10:17:54;;;;;;;0.10;0.10;;;;;;;12.91;79.32;101462.88;7363575;19;20743;-60
2024/02/17 10:20:20;;;;;;;0.10;0.10;;;;;;;12.90;79.45;101452.41;7364922;19;20018;-61
2024/02/17 10:22:46;;;;;;;0.10;0.10;;;;;;;12.90;79.77;101465.53;7365749;19;20788;-60
2024/02/17 10:25:13;;;;;;;0.10;0.10;;;;;;;12.88;79.76;101460.31;7358653;19;20388;-61
2024/02/17 10:27:39;;;;;;;0.10;0.10;;;;;;;12.87;80.05;101462.97;7365834;19;20011;-60
2024/02/17 10:30:12;;;;;;;0.17;0.17;;;;;;;12.75;80.00;101443.09;7369024;19;20019;-61
2024/02/17 10:32:41;;;;;;;0.10;0.10;;;;;;;12.87;80.20;101452.47;7363956;19;20373;-61
2024/02/17 10:35:08;;;;;;;0.10;0.10;;;;;;;12.84;80.42;101452.56;7365159;19;20019;-61
2024/02/17 10:37:38;;;;;;;0.10;0.10;;;;;;;12.83;80.67;101462.19;7358281;19;20009;-61
2024/02/17 10:40:05;;;;;;;0.20;0.20;;;;;;;12.82;80.94;101460.44;7357680;19;20014;-60
2024/02/17 10:42:32;;;;;;;0.20;0.20;;;;;;;12.82;80.66;101464.81;7364913;19;20010;-60
2024/02/17 10:45:01;;;;;;;0.20;0.20;;;;;;;12.81;80.59;101463.09;7365555;19;20014;-59
2024/02/17 10:47:36;;;;;;;0.10;0.10;;;;;;;12.80;80.49;101453.50;7363352;19;20002;-60
2024/02/17 10:50:04;;;;;;;0.20;0.20;;;;;;;12.82;80.59;101443.84;7363790;19;20781;-60
2024/02/17 10:52:41;;;;;;;0.10;0.10;;;;;;;12.80;80.62;101440.41;7364753;19;20758;-60
2024/02/17 10:55:11;;;;;;;0.10;0.10;;;;;;;12.82;81.23;101449.09;7364976;19;20015;-60
2024/02/17 10:57:56;;;;;;;0.10;0.10;;;;;;;12.84;80.80;101444.69;7360418;19;20013;-61
2024/02/17 11:00:25;;;;;;;0.20;0.20;;;;;;;12.71;80.83;101437.06;7365989;19;20490;-59
2024/02/17 11:02:59;;;;;;;0.10;0.10;;;;;;;12.84;81.09;101444.69;7363835;19;20006;-60
2024/02/17 11:05:25;;;;;;;0.10;0.10;;;;;;;12.82;80.70;101443.84;7364939;19;20025;-59
2024/02/17 11:07:51;;;;;;;0.10;0.10;;;;;;;12.83;81.11;101445.59;7364308;19;20718;-58
2024/02/17 11:10:16;;;;;;;0.10;0.10;;;;;;;12.83;80.85;101424.63;7364165;19;20017;-60
2024/02/17 11:12:48;;;;;;;0.17;0.17;;;;;;;12.89;81.29;101425.34;7365699;19;20013;-60
2024/02/17 11:15:14;;;;;;;0.20;0.20;;;;;;;12.87;81.41;101421.88;7364190;19;20031;-60
2024/02/17 11:17:50;;;;;;;0.10;0.10;;;;;;;12.90;81.52;101415.72;7357949;19;20002;-60
2024/02/17 11:20:17;;;;;;;0.10;0.10;;;;;;;12.80;81.46;101414.19;7359355;19;20499;-59
2024/02/17 11:22:47;;;;;;;0.10;0.10;;;;;;;12.91;81.44;101420.06;7363638;19;20014;-59